createdAt,value
2022-11-26T00:00:00.106Z,54.21
2022-11-26T00:02:30.551Z,54.38
2022-11-26T00:04:59.739Z,54.14
2022-11-26T00:07:30.853Z,54.15
2022-11-26T00:09:59.498Z,54.07
2022-11-26T00:12:37.087Z,54.32
2022-11-26T00:15:25.776Z,54.21
2022-11-26T00:17:53.792Z,54.32
2022-11-26T00:20:30.530Z,54.43
2022-11-26T00:23:01.567Z,54.30
2022-11-26T00:25:41.639Z,54.21
2022-11-26T00:28:35.073Z,54.18
2022-11-26T00:31:07.522Z,54.27
2022-11-26T00:33:34.881Z,54.23
2022-11-26T00:36:06.921Z,54.44
2022-11-26T00:38:34.696Z,54.30
2022-11-26T00:41:02.078Z,54.29
2022-11-26T00:43:29.347Z,54.32
2022-11-26T00:45:56.650Z,54.39
2022-11-26T00:48:24.036Z,54.30
2022-11-26T00:50:51.735Z,54.26
2022-11-26T00:53:22.560Z,54.30
2022-11-26T00:55:50.437Z,54.22
2022-11-26T00:58:25.526Z,54.22
2022-11-26T01:00:54.371Z,54.31
2022-11-26T01:03:22.424Z,54.28
2022-11-26T01:05:52.538Z,54.20
2022-11-26T01:08:35.444Z,54.49
2022-11-26T01:11:04.935Z,54.22
2022-11-26T01:13:32.698Z,54.20
2022-11-26T01:16:02.825Z,54.29
2022-11-26T01:18:35.222Z,54.20
2022-11-26T01:21:02.568Z,54.21
2022-11-26T01:23:29.779Z,54.19
2022-11-26T01:25:56.996Z,54.19
2022-11-26T01:28:24.247Z,54.31
2022-11-26T01:30:51.508Z,54.26
2022-11-26T01:33:18.857Z,54.24
2022-11-26T01:35:46.526Z,54.04
2022-11-26T01:38:15.341Z,54.14
2022-11-26T01:40:54.627Z,54.38
2022-11-26T01:43:41.184Z,54.21
2022-11-26T01:46:17.432Z,54.17
2022-11-26T01:48:45.425Z,54.32
2022-11-26T01:51:15.638Z,54.19
2022-11-26T01:53:59.074Z,54.33
2022-11-26T01:56:32.410Z,54.42
2022-11-26T01:59:24.691Z,54.33
2022-11-26T02:01:55.310Z,54.34
2022-11-26T02:04:33.312Z,54.39
2022-11-26T02:07:00.711Z,54.46
2022-11-26T02:09:28.823Z,54.38
2022-11-26T02:11:56.691Z,54.40
2022-11-26T02:14:28.816Z,54.42
2022-11-26T02:17:23.588Z,54.37
2022-11-26T02:20:09.607Z,54.48
2022-11-26T02:23:07.912Z,54.46
2022-11-26T02:26:03.371Z,54.52
2022-11-26T02:28:44.311Z,54.46
2022-11-26T02:31:19.938Z,54.55
2022-11-26T02:34:15.834Z,54.48
2022-11-26T02:37:03.903Z,54.53
2022-11-26T02:39:31.721Z,54.51
2022-11-26T02:42:02.340Z,54.63
2022-11-26T02:44:41.704Z,54.50
2022-11-26T02:47:14.013Z,54.59
2022-11-26T02:49:44.518Z,54.53
2022-11-26T02:52:14.768Z,54.67
2022-11-26T02:54:44.205Z,54.50
2022-11-26T02:57:14.665Z,54.59
2022-11-26T02:59:42.810Z,54.71
2022-11-26T03:02:13.087Z,54.57
2022-11-26T03:04:45.623Z,54.66
2022-11-26T03:07:14.885Z,54.58
2022-11-26T03:09:51.419Z,54.67
2022-11-26T03:12:19.049Z,54.65
2022-11-26T03:14:46.481Z,54.68
2022-11-26T03:17:13.848Z,54.74
2022-11-26T03:19:41.583Z,54.64
2022-11-26T03:22:08.938Z,54.56
2022-11-26T03:24:37.407Z,54.69
2022-11-26T03:27:04.846Z,54.61
2022-11-26T03:29:32.183Z,54.63
2022-11-26T03:31:59.825Z,54.65
2022-11-26T03:34:27.117Z,54.76
2022-11-26T03:36:54.384Z,54.60
2022-11-26T03:39:21.630Z,54.70
2022-11-26T03:41:48.958Z,54.84
2022-11-26T03:44:16.445Z,54.72
2022-11-26T03:46:43.787Z,54.75
2022-11-26T03:49:11.044Z,54.72
2022-11-26T03:51:38.365Z,54.44
2022-11-26T03:54:05.674Z,54.82
2022-11-26T03:56:32.929Z,54.70
2022-11-26T03:59:00.211Z,54.87
2022-11-26T04:01:27.520Z,54.96
2022-11-26T04:03:54.808Z,54.92
2022-11-26T04:06:22.067Z,54.86
2022-11-26T04:08:49.432Z,54.94
2022-11-26T04:11:16.931Z,54.99
2022-11-26T04:13:44.395Z,54.88
2022-11-26T04:16:11.764Z,54.78
2022-11-26T04:18:39.006Z,54.90
2022-11-26T04:21:07.948Z,54.73
2022-11-26T04:23:36.433Z,54.74
2022-11-26T04:26:05.039Z,54.83
2022-11-26T04:28:32.404Z,54.88
2022-11-26T04:30:59.956Z,54.84
2022-11-26T04:33:27.344Z,54.81
2022-11-26T04:35:55.586Z,54.74
2022-11-26T04:38:25.882Z,54.98
2022-11-26T04:40:53.674Z,54.81
2022-11-26T04:43:21.599Z,54.70
2022-11-26T04:45:49.024Z,54.76
2022-11-26T04:48:16.347Z,54.87
2022-11-26T04:50:43.750Z,55.00
2022-11-26T04:53:11.194Z,54.89
2022-11-26T04:55:38.569Z,55.00
2022-11-26T04:58:05.843Z,54.92
2022-11-26T05:00:33.312Z,54.90
2022-11-26T05:03:00.574Z,54.86
2022-11-26T05:05:27.967Z,54.87
2022-11-26T05:07:55.272Z,54.95
2022-11-26T05:10:22.736Z,54.85
2022-11-26T05:12:50.148Z,54.96
2022-11-26T05:15:17.491Z,54.86
2022-11-26T05:17:44.803Z,54.90
2022-11-26T05:20:12.809Z,54.83
2022-11-26T05:22:40.036Z,54.97
2022-11-26T05:25:07.667Z,54.84
2022-11-26T05:27:35.371Z,54.39
2022-11-26T05:30:03.669Z,54.54
2022-11-26T05:32:30.945Z,54.46
2022-11-26T05:35:00.201Z,54.64
2022-11-26T05:37:27.841Z,54.58
2022-11-26T05:39:55.104Z,54.58
2022-11-26T05:42:22.442Z,54.68
2022-11-26T05:44:49.724Z,54.73
2022-11-26T05:47:17.011Z,54.46
2022-11-26T05:49:44.401Z,54.71
2022-11-26T05:52:11.884Z,54.73
2022-11-26T05:54:39.533Z,54.33
2022-11-26T05:57:07.046Z,54.60
2022-11-26T05:59:34.505Z,54.47
2022-11-26T06:02:01.854Z,54.26
2022-11-26T06:04:29.351Z,54.29
2022-11-26T06:06:56.770Z,54.49
2022-11-26T06:09:24.014Z,54.51
2022-11-26T06:11:51.951Z,54.60
2022-11-26T06:14:19.289Z,54.48
2022-11-26T06:16:46.773Z,54.29
2022-11-26T06:19:14.370Z,54.12
2022-11-26T06:21:41.684Z,54.74
2022-11-26T06:24:08.974Z,54.34
2022-11-26T06:26:36.219Z,54.31
2022-11-26T06:29:03.915Z,54.31
2022-11-26T06:31:32.787Z,54.42
2022-11-26T06:34:01.348Z,54.30
2022-11-26T06:36:28.813Z,54.08
2022-11-26T06:38:56.196Z,54.36
2022-11-26T06:41:23.673Z,54.35
2022-11-26T06:43:51.092Z,54.21
2022-11-26T06:46:18.614Z,54.11
2022-11-26T06:48:45.884Z,54.42
2022-11-26T06:51:15.239Z,54.36
2022-11-26T06:53:43.000Z,54.17
2022-11-26T06:56:18.142Z,54.45
2022-11-26T06:58:50.327Z,54.20
2022-11-26T07:01:20.846Z,54.27
2022-11-26T07:03:48.208Z,54.45
2022-11-26T07:06:20.631Z,54.50
2022-11-26T07:08:48.764Z,54.59
2022-11-26T07:11:16.554Z,54.29
2022-11-26T07:13:44.229Z,54.53
2022-11-26T07:16:11.714Z,54.27
2022-11-26T07:18:39.212Z,54.41
2022-11-26T07:21:16.033Z,54.44
2022-11-26T07:23:43.510Z,54.38
2022-11-26T07:26:11.981Z,54.04
2022-11-26T07:28:39.924Z,53.95
2022-11-26T07:31:16.153Z,53.91
2022-11-26T07:33:45.138Z,54.19
2022-11-26T07:36:21.623Z,53.98
2022-11-26T07:38:49.298Z,54.16
2022-11-26T07:41:19.537Z,54.27
2022-11-26T07:43:47.356Z,54.37
2022-11-26T07:46:17.300Z,54.28
2022-11-26T07:48:45.088Z,54.40
2022-11-26T07:51:21.270Z,54.44
2022-11-26T07:53:49.760Z,54.50
2022-11-26T07:56:18.114Z,54.43
2022-11-26T07:58:46.012Z,54.71
2022-11-26T08:01:19.597Z,54.64
2022-11-26T08:03:48.949Z,54.40
2022-11-26T08:06:19.378Z,54.41
2022-11-26T08:08:47.656Z,54.27
2022-11-26T08:11:16.402Z,54.57
2022-11-26T08:13:44.571Z,54.62
2022-11-26T08:16:13.213Z,54.58
2022-11-26T08:18:41.053Z,54.02
2022-11-26T08:21:08.451Z,54.26
2022-11-26T08:23:36.419Z,54.72
2022-11-26T08:28:57.567Z,54.71
2022-11-26T08:31:27.661Z,55.08
2022-11-26T08:33:59.749Z,55.29
2022-11-26T08:36:28.823Z,55.40
2022-11-26T08:38:57.012Z,55.47
2022-11-26T08:41:24.366Z,55.26
2022-11-26T08:44:08.309Z,55.05
2022-11-26T08:46:40.822Z,54.94
2022-11-26T08:49:12.301Z,54.99
2022-11-26T08:51:39.648Z,55.14
2022-11-26T08:54:07.322Z,55.39
2022-11-26T08:56:34.740Z,55.01
2022-11-26T08:59:02.347Z,54.97
2022-11-26T09:01:32.527Z,54.84
2022-11-26T09:04:02.012Z,54.89
2022-11-26T09:06:31.555Z,55.01
2022-11-26T09:09:13.774Z,54.81
2022-11-26T09:11:58.884Z,55.23
2022-11-26T09:14:29.184Z,54.98
2022-11-26T09:16:57.883Z,55.11
2022-11-26T09:19:26.064Z,54.94
2022-11-26T09:21:53.362Z,55.07
2022-11-26T09:24:21.511Z,55.13
2022-11-26T09:26:49.075Z,55.04
2022-11-26T09:29:19.369Z,54.81
2022-11-26T09:34:36.901Z,54.13
2022-11-26T09:37:04.821Z,54.58
2022-11-26T09:39:32.281Z,54.05
2022-11-26T09:42:06.246Z,54.36
2022-11-26T09:44:52.178Z,54.80
2022-11-26T09:47:28.593Z,54.87
2022-11-26T09:50:11.033Z,54.24
2022-11-26T09:52:53.473Z,54.40
2022-11-26T09:55:29.560Z,54.25
2022-11-26T09:58:15.077Z,54.31
2022-11-26T10:00:46.423Z,54.59
2022-11-26T10:03:22.769Z,54.56
2022-11-26T10:06:02.496Z,54.51
2022-11-26T10:08:48.541Z,54.69
2022-11-26T10:11:15.841Z,54.65
2022-11-26T10:13:58.473Z,54.56
2022-11-26T10:16:43.102Z,54.18
2022-11-26T10:19:13.292Z,54.49
2022-11-26T10:21:58.701Z,53.63
2022-11-26T10:24:31.915Z,53.48
2022-11-26T10:27:10.847Z,53.77
2022-11-26T10:29:41.627Z,53.44
2022-11-26T10:32:28.361Z,53.29
2022-11-26T10:34:57.908Z,53.41
2022-11-26T10:37:27.367Z,53.74
2022-11-26T10:40:14.359Z,53.36
2022-11-26T10:42:44.188Z,53.32
2022-11-26T10:45:23.339Z,54.66
2022-11-26T10:47:50.666Z,54.73
2022-11-26T10:50:46.632Z,54.81
2022-11-26T10:53:20.536Z,54.94
2022-11-26T10:55:48.399Z,54.56
2022-11-26T10:58:20.974Z,57.11
2022-11-26T11:00:48.425Z,61.35
2022-11-26T11:03:28.710Z,59.02
2022-11-26T11:06:28.214Z,63.98
2022-11-26T11:08:55.976Z,63.79
2022-11-26T11:11:30.020Z,63.65
2022-11-26T11:13:58.094Z,63.96
2022-11-26T11:16:43.792Z,64.16
2022-11-26T11:19:24.801Z,64.73
2022-11-26T11:21:52.214Z,64.92
2022-11-26T11:24:28.476Z,64.71
2022-11-26T11:27:00.204Z,63.92
2022-11-26T11:29:34.906Z,64.52
2022-11-26T11:32:05.743Z,63.83
2022-11-26T11:34:44.224Z,64.67
2022-11-26T11:37:16.598Z,64.65
2022-11-26T11:39:44.621Z,65.10
2022-11-26T11:42:29.193Z,65.90
2022-11-26T11:45:00.220Z,63.03
2022-11-26T11:47:37.735Z,63.32
2022-11-26T11:50:05.525Z,64.28
2022-11-26T11:53:01.708Z,65.41
2022-11-26T11:55:31.982Z,65.72
2022-11-26T11:58:02.142Z,65.79
2022-11-26T12:00:38.752Z,65.05
2022-11-26T12:03:29.448Z,65.65
2022-11-26T12:05:56.824Z,65.79
2022-11-26T12:08:44.490Z,65.69
2022-11-26T12:11:36.574Z,66.22
2022-11-26T12:14:06.548Z,66.30
2022-11-26T12:16:40.251Z,66.17
2022-11-26T12:19:18.289Z,66.24
2022-11-26T12:22:17.935Z,66.54
2022-11-26T12:24:54.462Z,66.36
2022-11-26T12:27:21.831Z,66.39
2022-11-26T12:29:58.109Z,66.56
2022-11-26T12:32:37.909Z,66.36
2022-11-26T12:35:12.633Z,66.35
2022-11-26T12:37:42.105Z,66.33
2022-11-26T12:40:34.261Z,66.52
2022-11-26T12:43:22.877Z,66.39
2022-11-26T12:45:56.579Z,66.65
2022-11-26T12:48:49.978Z,66.52
2022-11-26T12:51:29.040Z,66.42
2022-11-26T12:54:06.964Z,66.47
2022-11-26T12:56:43.655Z,66.31
2022-11-26T12:59:53.707Z,66.49
2022-11-26T13:02:27.698Z,66.64
2022-11-26T13:04:56.466Z,66.35
2022-11-26T13:07:26.833Z,66.50
2022-11-26T13:10:18.822Z,66.26
2022-11-26T13:13:09.414Z,66.33
2022-11-26T13:15:39.442Z,66.50
2022-11-26T13:18:26.929Z,66.40
2022-11-26T13:20:56.776Z,66.40
2022-11-26T13:23:39.216Z,66.30
2022-11-26T13:26:37.149Z,66.39
2022-11-26T13:29:36.936Z,66.36
2022-11-26T13:32:36.909Z,66.29
2022-11-26T13:35:36.205Z,66.21
2022-11-26T13:38:09.315Z,65.97
2022-11-26T13:40:42.242Z,66.20
2022-11-26T13:43:39.712Z,66.25
2022-11-26T13:46:15.481Z,66.26
2022-11-26T13:48:57.238Z,66.23
2022-11-26T13:51:42.688Z,66.09
2022-11-26T13:54:12.782Z,66.10
2022-11-26T13:56:42.224Z,66.08
2022-11-26T13:59:28.289Z,66.04
2022-11-26T14:01:56.598Z,66.12
2022-11-26T14:04:24.104Z,65.83
2022-11-26T14:07:06.699Z,65.97
2022-11-26T14:09:43.255Z,65.90
2022-11-26T14:12:14.599Z,65.84
2022-11-26T14:14:48.081Z,65.76
2022-11-26T14:17:16.726Z,65.76
2022-11-26T14:19:44.136Z,65.77
2022-11-26T14:22:11.462Z,65.73
2022-11-26T14:25:00.361Z,65.65
2022-11-26T14:27:32.436Z,65.57
2022-11-26T14:30:08.605Z,65.48
2022-11-26T14:33:00.284Z,65.67
2022-11-26T14:35:34.866Z,65.57
2022-11-26T14:38:05.893Z,65.36
2022-11-26T14:40:35.803Z,65.54
2022-11-26T14:43:22.312Z,65.67
2022-11-26T14:46:14.927Z,65.53
2022-11-26T14:48:47.404Z,65.45
2022-11-26T14:51:26.455Z,65.48
2022-11-26T14:53:55.454Z,65.28
2022-11-26T14:56:25.365Z,65.19
2022-11-26T14:58:55.021Z,65.32
2022-11-26T15:01:24.539Z,65.16
2022-11-26T15:03:59.643Z,65.43
2022-11-26T15:06:38.459Z,65.03
2022-11-26T15:09:17.325Z,65.02
2022-11-26T15:11:49.916Z,65.04
2022-11-26T15:14:22.966Z,64.85
2022-11-26T15:16:55.395Z,64.85
2022-11-26T15:19:23.282Z,64.64
2022-11-26T15:21:52.166Z,64.89
2022-11-26T15:24:19.758Z,64.95
2022-11-26T15:26:48.088Z,64.74
2022-11-26T15:29:31.901Z,64.61
2022-11-26T15:31:59.765Z,64.76
2022-11-26T15:34:29.190Z,64.61
2022-11-26T15:36:56.533Z,64.69
2022-11-26T15:39:31.649Z,64.48
2022-11-26T15:42:04.463Z,64.41
2022-11-26T15:44:38.990Z,64.65
2022-11-26T15:47:19.045Z,64.44
2022-11-26T15:49:52.067Z,64.54
2022-11-26T15:52:22.899Z,64.52
2022-11-26T15:55:15.053Z,64.37
2022-11-26T15:57:43.756Z,64.04
2022-11-26T16:00:21.853Z,64.44
2022-11-26T16:02:49.303Z,64.14
2022-11-26T16:05:38.843Z,64.40
2022-11-26T16:08:27.566Z,64.37
2022-11-26T16:11:04.730Z,64.13
2022-11-26T16:13:33.289Z,64.15
2022-11-26T16:16:23.302Z,64.18
2022-11-26T16:18:54.476Z,63.79
2022-11-26T16:21:30.784Z,64.02
2022-11-26T16:24:05.637Z,63.78
2022-11-26T16:27:02.134Z,63.86
2022-11-26T16:29:30.279Z,63.96
2022-11-26T16:31:58.056Z,64.11
2022-11-26T16:34:29.692Z,63.67
2022-11-26T16:37:16.451Z,63.41
2022-11-26T16:39:43.797Z,63.21
2022-11-26T16:42:15.889Z,63.12
2022-11-26T16:44:43.256Z,63.55
2022-11-26T16:47:17.888Z,64.22
2022-11-26T16:49:45.202Z,64.64
2022-11-26T16:52:15.295Z,64.27
2022-11-26T16:54:42.603Z,63.79
2022-11-26T16:57:15.058Z,63.79
2022-11-26T16:59:44.397Z,63.60
2022-11-26T17:02:20.057Z,63.24
2022-11-26T17:04:47.777Z,63.25
2022-11-26T17:07:25.013Z,63.29
2022-11-26T17:09:53.832Z,63.04
2022-11-26T17:12:23.691Z,62.95
2022-11-26T17:17:28.298Z,62.95
2022-11-26T17:19:56.838Z,62.82
2022-11-26T17:22:25.446Z,62.81
2022-11-26T17:24:52.774Z,62.85
2022-11-26T17:27:23.488Z,62.77
2022-11-26T17:29:50.833Z,62.62
2022-11-26T17:32:20.004Z,63.26
2022-11-26T17:34:48.042Z,63.76
2022-11-26T17:37:22.299Z,64.26
2022-11-26T17:39:49.705Z,64.70
2022-11-26T17:42:19.732Z,64.91
2022-11-26T17:44:47.566Z,65.28
2022-11-26T17:47:18.103Z,65.14
2022-11-26T17:49:46.761Z,65.22
2022-11-26T17:52:15.495Z,65.15
2022-11-26T17:54:44.280Z,65.05
2022-11-26T17:57:13.424Z,65.15
2022-11-26T17:59:41.565Z,65.02
2022-11-26T18:02:10.202Z,64.96
2022-11-26T18:04:37.931Z,65.13
2022-11-26T18:07:15.695Z,65.40
2022-11-26T18:09:43.708Z,65.83
2022-11-26T18:12:25.456Z,65.99
2022-11-26T18:14:54.363Z,66.11
2022-11-26T18:17:23.948Z,66.14
2022-11-26T18:19:51.187Z,66.46
2022-11-26T18:22:21.443Z,66.17
2022-11-26T18:24:56.423Z,66.62
2022-11-26T18:27:30.608Z,66.37
2022-11-26T18:29:58.014Z,66.32
2022-11-26T18:32:25.511Z,66.22
2022-11-26T18:34:52.934Z,66.25
2022-11-26T18:37:20.355Z,66.41
2022-11-26T18:39:47.738Z,66.08
2022-11-26T18:42:36.042Z,66.17
2022-11-26T18:45:02.442Z,66.20
2022-11-26T18:47:29.834Z,65.72
2022-11-26T18:49:57.160Z,65.84
2022-11-26T18:52:24.497Z,65.71
2022-11-26T18:54:52.070Z,64.42
2022-11-26T18:57:19.471Z,64.46
2022-11-26T18:59:49.305Z,64.42
2022-11-26T19:02:16.578Z,62.40
2022-11-26T19:04:43.910Z,62.52
2022-11-26T19:07:12.704Z,61.58
2022-11-26T19:09:40.301Z,61.67
2022-11-26T19:12:07.846Z,61.57
2022-11-26T19:14:35.169Z,61.66
2022-11-26T19:17:02.528Z,61.55
2022-11-26T19:19:30.103Z,61.86
2022-11-26T19:22:01.035Z,61.64
2022-11-26T19:24:30.204Z,61.94
2022-11-26T19:26:57.704Z,61.41
2022-11-26T19:29:25.092Z,61.21
2022-11-26T19:31:52.487Z,61.42
2022-11-26T19:34:19.834Z,61.18
2022-11-26T19:36:49.058Z,61.08
2022-11-26T19:39:16.997Z,60.80
2022-11-26T19:41:44.730Z,60.91
2022-11-26T19:44:12.106Z,61.13
2022-11-26T19:46:41.841Z,61.07
2022-11-26T19:49:12.529Z,61.08
2022-11-26T19:51:40.309Z,60.94
2022-11-26T19:54:07.699Z,60.95
2022-11-26T19:56:35.643Z,60.88
2022-11-26T19:59:03.140Z,60.79
2022-11-26T20:01:32.666Z,60.74
2022-11-26T20:04:03.400Z,60.72
2022-11-26T20:06:32.679Z,60.57
2022-11-26T20:09:00.035Z,60.60
2022-11-26T20:11:28.674Z,60.52
2022-11-26T20:13:56.891Z,60.71
2022-11-26T20:16:28.578Z,60.40
2022-11-26T20:18:56.597Z,60.34
2022-11-26T20:21:27.018Z,60.33
2022-11-26T20:23:57.203Z,60.13
2022-11-26T20:26:30.346Z,60.07
2022-11-26T20:29:07.906Z,60.18
2022-11-26T20:31:35.397Z,60.14
2022-11-26T20:34:04.365Z,60.20
2022-11-26T20:36:31.898Z,60.31
2022-11-26T20:39:03.191Z,60.25
2022-11-26T20:41:30.693Z,60.17
2022-11-26T20:43:59.652Z,60.23
2022-11-26T20:46:28.719Z,60.18
2022-11-26T20:48:56.747Z,60.01
2022-11-26T20:51:25.203Z,60.00
2022-11-26T20:53:53.408Z,60.14
2022-11-26T20:56:21.853Z,59.94
2022-11-26T20:58:50.663Z,59.89
2022-11-26T21:01:26.696Z,59.95
2022-11-26T21:03:55.372Z,59.93
2022-11-26T21:06:29.380Z,59.73
2022-11-26T21:08:59.901Z,59.77
2022-11-26T21:11:27.355Z,59.89
2022-11-26T21:13:54.873Z,59.62
2022-11-26T21:16:23.374Z,59.55
2022-11-26T21:18:54.304Z,59.42
2022-11-26T21:21:22.796Z,59.61
2022-11-26T21:23:50.431Z,59.40
2022-11-26T21:26:24.028Z,59.30
2022-11-26T21:28:52.776Z,59.16
2022-11-26T21:31:21.394Z,59.36
2022-11-26T21:33:59.101Z,59.22
2022-11-26T21:36:27.440Z,59.19
2022-11-26T21:38:55.071Z,59.08
2022-11-26T21:41:23.410Z,59.06
2022-11-26T21:43:51.435Z,59.03
2022-11-26T21:46:25.388Z,58.95
2022-11-26T21:48:54.411Z,59.12
2022-11-26T21:51:22.956Z,58.79
2022-11-26T21:53:50.910Z,59.14
2022-11-26T21:56:21.076Z,58.77
2022-11-26T21:58:49.812Z,58.75
2022-11-26T22:01:21.087Z,58.55
2022-11-26T22:03:51.793Z,58.50
2022-11-26T22:06:21.295Z,58.24
2022-11-26T22:08:49.709Z,58.20
2022-11-26T22:11:22.889Z,58.51
2022-11-26T22:13:50.155Z,58.04
2022-11-26T22:16:19.387Z,58.10
2022-11-26T22:18:47.804Z,57.98
2022-11-26T22:21:16.602Z,58.11
2022-11-26T22:23:44.693Z,57.85
2022-11-26T22:26:12.436Z,57.70
2022-11-26T22:28:40.236Z,57.81
2022-11-26T22:31:15.505Z,57.88
2022-11-26T22:33:42.925Z,57.76
2022-11-26T22:36:10.514Z,57.95
2022-11-26T22:38:39.274Z,58.11
2022-11-26T22:41:09.464Z,58.37
2022-11-26T22:43:37.506Z,58.48
2022-11-26T22:46:06.522Z,58.17
2022-11-26T22:48:34.989Z,58.26
2022-11-26T22:51:02.821Z,58.32
2022-11-26T22:53:30.520Z,58.46
2022-11-26T22:55:59.688Z,58.58
2022-11-26T22:58:27.912Z,58.75
2022-11-26T23:01:02.472Z,58.46
2022-11-26T23:03:32.675Z,58.28
2022-11-26T23:06:09.126Z,58.70
2022-11-26T23:08:38.405Z,58.77
2022-11-26T23:11:18.971Z,58.66
2022-11-26T23:13:47.736Z,58.07
2022-11-26T23:16:15.904Z,57.66
2022-11-26T23:18:43.550Z,57.24
2022-11-26T23:21:19.779Z,56.64
2022-11-26T23:23:47.702Z,57.08
2022-11-26T23:26:21.784Z,57.40
2022-11-26T23:28:54.463Z,58.00
2022-11-26T23:31:24.895Z,57.74
2022-11-26T23:33:52.602Z,57.80
2022-11-26T23:36:20.328Z,57.75
2022-11-26T23:38:47.887Z,57.73
2022-11-26T23:41:15.613Z,57.65
2022-11-26T23:43:43.828Z,57.49
2022-11-26T23:46:21.548Z,57.59
2022-11-26T23:48:49.773Z,57.55
2022-11-26T23:51:20.356Z,57.46
2022-11-26T23:53:50.405Z,57.33
2022-11-26T23:56:26.943Z,57.26
2022-11-26T23:58:59.687Z,57.21
